createdAt,value
2019-04-11T00:01:10.566Z,88.90
2019-04-11T00:03:40.069Z,88.60
2019-04-11T00:06:09.637Z,88.50
2019-04-11T00:08:38.987Z,88.30
2019-04-11T00:11:09.460Z,88.50
2019-04-11T00:13:39.152Z,88.60
2019-04-11T00:16:09.178Z,88.50
2019-04-11T00:18:38.830Z,88.20
2019-04-11T00:21:08.719Z,88.00
2019-04-11T00:23:38.612Z,88.40
2019-04-11T00:26:08.442Z,88.00
2019-04-11T00:28:39.537Z,88.20
2019-04-11T00:31:09.143Z,88.20
2019-04-11T00:33:38.423Z,88.00
2019-04-11T00:36:08.311Z,88.30
2019-04-11T00:38:38.246Z,88.00
2019-04-11T00:41:08.056Z,87.70
2019-04-11T00:43:41.667Z,87.30
2019-04-11T00:46:09.848Z,87.40
2019-04-11T00:48:39.289Z,87.40
2019-04-11T00:51:09.722Z,87.30
2019-04-11T00:53:40.276Z,87.30
2019-04-11T00:56:10.902Z,87.30
2019-04-11T00:58:41.309Z,87.00
2019-04-11T01:01:12.520Z,87.20
2019-04-11T01:03:41.828Z,86.90
2019-04-11T01:06:12.193Z,86.90
2019-04-11T01:08:41.992Z,86.70
2019-04-11T01:11:11.985Z,86.70
2019-04-11T01:13:48.609Z,86.50
2019-04-11T01:16:26.354Z,86.50
2019-04-11T01:18:55.730Z,86.70
2019-04-11T01:21:26.425Z,86.20
2019-04-11T01:23:55.929Z,86.10
2019-04-11T01:26:25.589Z,86.20
2019-04-11T01:28:56.002Z,86.20
2019-04-11T01:31:27.348Z,86.10
2019-04-11T01:33:57.074Z,86.10
2019-04-11T01:36:26.949Z,86.00
2019-04-11T01:38:58.990Z,87.10
2019-04-11T01:41:28.811Z,86.00
2019-04-11T01:44:02.081Z,85.80
2019-04-11T01:46:29.886Z,85.90
2019-04-11T01:49:08.312Z,85.60
2019-04-11T01:51:38.374Z,85.80
2019-04-11T01:54:08.073Z,85.50
2019-04-11T01:56:37.417Z,85.70
2019-04-11T01:59:07.082Z,85.00
2019-04-11T02:01:42.945Z,84.60
2019-04-11T02:04:17.433Z,84.70
2019-04-11T02:06:47.809Z,84.80
2019-04-11T02:09:17.464Z,84.50
2019-04-11T02:11:47.722Z,84.40
2019-04-11T02:14:19.985Z,84.40
2019-04-11T02:16:49.623Z,84.40
2019-04-11T02:19:20.416Z,84.00
2019-04-11T02:21:51.743Z,84.40
2019-04-11T02:24:40.268Z,84.10
2019-04-11T02:27:19.014Z,84.00
2019-04-11T02:29:48.953Z,83.50
2019-04-11T02:32:20.841Z,83.70
2019-04-11T02:34:52.216Z,83.70
2019-04-11T02:37:21.924Z,84.10
2019-04-11T02:39:53.533Z,83.80
2019-04-11T02:42:23.389Z,83.80
2019-04-11T02:45:09.227Z,84.00
2019-04-11T02:47:27.634Z,83.80
2019-04-11T02:49:57.149Z,83.90
2019-04-11T02:52:27.662Z,84.10
2019-04-11T02:54:58.582Z,83.50
2019-04-11T02:57:29.832Z,83.70
2019-04-11T02:59:59.851Z,83.20
2019-04-11T03:02:30.787Z,83.50
2019-04-11T03:05:00.502Z,83.60
2019-04-11T03:07:31.878Z,83.30
2019-04-11T03:10:03.071Z,83.80
2019-04-11T03:12:33.811Z,83.40
2019-04-11T03:15:21.244Z,83.80
2019-04-11T03:17:40.581Z,83.50
2019-04-11T03:20:15.423Z,83.60
2019-04-11T03:22:38.398Z,83.80
2019-04-11T03:25:08.586Z,84.00
2019-04-11T03:27:38.511Z,83.80
2019-04-11T03:30:14.620Z,83.10
2019-04-11T03:38:03.744Z,84.20
2019-04-11T03:40:33.581Z,83.40
2019-04-11T03:42:59.437Z,83.30
2019-04-11T03:45:37.901Z,83.10
2019-04-11T03:48:06.245Z,83.00
2019-04-11T03:50:23.219Z,82.80
2019-04-11T03:52:51.880Z,82.70
2019-04-11T03:55:23.283Z,82.80
2019-04-11T03:57:55.560Z,82.80
2019-04-11T04:00:29.882Z,82.90
2019-04-11T04:02:57.385Z,82.90
2019-04-11T04:05:28.468Z,83.40
2019-04-11T04:07:59.672Z,83.20
2019-04-11T04:10:31.810Z,83.50
2019-04-11T04:13:03.255Z,84.30
2019-04-11T04:16:10.806Z,84.20
2019-04-11T04:18:47.835Z,84.80
2019-04-11T04:21:42.952Z,84.60
2019-04-11T04:24:32.779Z,84.50
2019-04-11T04:27:01.936Z,84.60
2019-04-11T04:29:32.413Z,84.60
2019-04-11T04:32:02.998Z,84.70
2019-04-11T04:34:33.873Z,84.90
2019-04-11T04:37:05.365Z,85.30
2019-04-11T04:39:36.869Z,85.20
2019-04-11T04:42:14.457Z,85.30
2019-04-11T04:44:38.019Z,85.20
2019-04-11T04:47:17.919Z,85.20
2019-04-11T04:49:39.272Z,84.90
2019-04-11T04:52:11.903Z,85.30
2019-04-11T04:54:41.206Z,85.00
2019-04-11T04:57:13.111Z,84.80
2019-04-11T04:59:42.673Z,84.70
2019-04-11T05:02:12.861Z,84.70
2019-04-11T05:04:43.673Z,85.00
2019-04-11T05:07:13.218Z,85.00
2019-04-11T05:09:42.709Z,84.70
2019-04-11T05:12:12.130Z,85.10
2019-04-11T05:14:43.415Z,85.00
2019-04-11T05:17:12.929Z,85.90
2019-04-11T05:19:42.453Z,85.60
2019-04-11T05:22:14.764Z,85.40
2019-04-11T05:24:44.040Z,85.50
2019-04-11T05:27:13.293Z,85.30
2019-04-11T05:29:43.695Z,84.90
2019-04-11T05:32:13.540Z,84.60
2019-04-11T05:34:43.503Z,84.60
2019-04-11T05:37:13.217Z,85.20
2019-04-11T05:39:42.536Z,84.40
2019-04-11T05:42:15.863Z,84.70
2019-04-11T05:44:43.232Z,84.40
2019-04-11T05:47:18.132Z,84.30
2019-04-11T05:49:48.992Z,84.30
2019-04-11T05:52:19.812Z,84.10
2019-04-11T05:54:52.634Z,84.20
2019-04-11T05:57:24.259Z,84.10
2019-04-11T05:59:54.808Z,84.10
2019-04-11T06:02:29.109Z,84.00
2019-04-11T06:05:13.187Z,84.10
2019-04-11T06:07:57.583Z,83.80
2019-04-11T06:10:30.301Z,83.80
2019-04-11T06:13:24.925Z,83.50
2019-04-11T06:15:59.382Z,83.90
2019-04-11T06:18:37.015Z,83.40
2019-04-11T06:21:17.979Z,83.50
2019-04-11T06:24:09.950Z,83.50
2019-04-11T06:27:04.041Z,83.70
2019-04-11T06:29:38.968Z,84.00
2019-04-11T06:32:30.509Z,83.60
2019-04-11T06:35:16.678Z,83.50
2019-04-11T06:38:11.407Z,83.70
2019-04-11T06:40:46.612Z,83.40
2019-04-11T06:43:38.438Z,83.00
2019-04-11T06:46:27.183Z,83.10
2019-04-11T06:49:15.256Z,82.90
2019-04-11T06:51:48.991Z,83.10
2019-04-11T06:54:29.052Z,82.80
2019-04-11T06:56:59.222Z,82.90
2019-04-11T06:59:38.725Z,83.00
2019-04-11T07:02:18.003Z,83.40
2019-04-11T07:05:04.439Z,83.20
2019-04-11T07:07:35.980Z,83.10
2019-04-11T07:10:06.804Z,83.20
2019-04-11T07:12:56.944Z,82.80
2019-04-11T07:15:35.611Z,82.90
2019-04-11T07:18:22.837Z,83.50
2019-04-11T07:21:10.638Z,82.90
2019-04-11T07:23:58.093Z,82.80
2019-04-11T07:26:35.034Z,82.40
2019-04-11T07:29:23.910Z,82.40
2019-04-11T07:32:27.968Z,82.50
2019-04-11T07:35:17.380Z,82.50
2019-04-11T07:37:49.380Z,82.60
2019-04-11T07:40:37.674Z,82.50
2019-04-11T07:43:33.601Z,82.20
2019-04-11T07:46:19.905Z,82.40
2019-04-11T07:48:50.486Z,82.70
2019-04-11T07:51:30.234Z,82.90
2019-04-11T07:54:02.510Z,81.90
2019-04-11T07:56:54.962Z,82.20
2019-04-11T07:59:39.889Z,81.20
2019-04-11T08:02:35.615Z,81.90
2019-04-11T08:05:28.042Z,81.90
2019-04-11T08:08:25.702Z,81.30
2019-04-11T08:11:06.751Z,82.00
2019-04-11T08:14:13.619Z,81.60
2019-04-11T08:17:27.968Z,81.30
2019-04-11T08:20:08.954Z,81.10
2019-04-11T08:22:52.348Z,80.80
2019-04-11T08:25:47.396Z,80.70
2019-04-11T08:28:16.902Z,80.20
2019-04-11T08:31:09.024Z,80.10
2019-04-11T08:33:38.456Z,79.70
2019-04-11T08:36:26.944Z,80.50
2019-04-11T08:38:56.439Z,79.10
2019-04-11T08:41:44.913Z,78.80
2019-04-11T08:44:25.874Z,79.10
2019-04-11T08:47:01.325Z,78.40
2019-04-11T08:49:35.049Z,78.10
2019-04-11T08:52:11.790Z,78.00
2019-04-11T08:54:59.072Z,77.50
2019-04-11T08:57:48.373Z,78.40
2019-04-11T09:00:43.229Z,77.50
2019-04-11T09:03:29.472Z,76.40
2019-04-11T09:06:08.305Z,76.90
2019-04-11T09:08:57.185Z,76.60
2019-04-11T09:11:29.125Z,76.30
2019-04-11T09:14:17.579Z,76.70
2019-04-11T09:16:59.872Z,76.70
2019-04-11T09:19:41.088Z,76.40
2019-04-11T09:22:49.032Z,76.00
2019-04-11T09:25:37.027Z,76.70
2019-04-11T09:28:29.187Z,76.80
2019-04-11T09:31:17.063Z,77.00
2019-04-11T09:34:15.098Z,76.30
2019-04-11T09:36:58.349Z,75.30
2019-04-11T09:40:05.782Z,76.20
2019-04-11T09:42:47.102Z,75.50
2019-04-11T09:45:35.385Z,75.40
2019-04-11T09:48:33.660Z,74.30
2019-04-11T09:51:21.394Z,74.50
2019-04-11T09:53:55.594Z,74.50
2019-04-11T09:56:58.129Z,74.40
2019-04-11T09:59:49.806Z,74.70
2019-04-11T10:02:39.647Z,74.40
2019-04-11T10:05:11.186Z,74.20
2019-04-11T10:08:00.054Z,74.40
2019-04-11T10:10:40.310Z,74.20
2019-04-11T10:13:26.907Z,74.70
2019-04-11T10:16:28.351Z,74.20
2019-04-11T10:19:05.708Z,74.20
2019-04-11T10:21:35.505Z,73.30
2019-04-11T10:24:30.505Z,73.00
2019-04-11T10:27:08.840Z,73.30
2019-04-11T10:30:09.670Z,73.40
2019-04-11T10:32:45.480Z,72.90
2019-04-11T10:35:35.071Z,73.30
2019-04-11T10:38:06.783Z,73.40
2019-04-11T10:41:06.364Z,73.40
2019-04-11T10:43:37.435Z,73.20
2019-04-11T10:46:15.421Z,73.00
2019-04-11T10:48:53.230Z,73.40
2019-04-11T10:51:45.627Z,72.90
2019-04-11T10:54:15.595Z,73.20
2019-04-11T10:57:12.018Z,72.10
2019-04-11T10:59:41.392Z,72.70
2019-04-11T11:02:23.137Z,72.70
2019-04-11T11:04:54.727Z,72.60
2019-04-11T11:07:26.892Z,72.80
2019-04-11T11:10:03.035Z,73.00
2019-04-11T11:13:01.425Z,73.30
2019-04-11T11:15:33.818Z,73.60
2019-04-11T11:19:13.982Z,73.10
2019-04-11T11:21:15.832Z,72.90
2019-04-11T11:24:07.155Z,73.20
2019-04-11T11:26:37.389Z,72.30
2019-04-11T11:29:28.960Z,72.60
2019-04-11T11:32:11.362Z,72.70
2019-04-11T11:35:15.138Z,73.30
2019-04-11T11:37:57.799Z,73.20
2019-04-11T11:41:01.573Z,72.80
2019-04-11T11:43:32.969Z,72.40
2019-04-11T11:46:31.658Z,72.10
2019-04-11T11:49:12.256Z,72.40
2019-04-11T11:52:11.268Z,72.00
2019-04-11T11:54:48.061Z,71.90
2019-04-11T11:57:28.827Z,70.70
2019-04-11T12:00:07.085Z,72.00
2019-04-11T12:02:55.462Z,72.30
2019-04-11T12:05:29.497Z,71.90
2019-04-11T12:08:13.618Z,71.80
2019-04-11T12:10:56.224Z,72.00
2019-04-11T12:13:45.514Z,72.30
2019-04-11T12:16:43.979Z,71.60
2019-04-11T12:19:21.598Z,71.50
2019-04-11T12:21:52.080Z,71.30
2019-04-11T12:24:34.514Z,70.80
2019-04-11T12:27:16.263Z,70.30
2019-04-11T12:29:53.493Z,70.20
2019-04-11T12:32:26.265Z,70.40
2019-04-11T12:35:06.120Z,70.20
2019-04-11T12:37:41.345Z,70.90
2019-04-11T12:40:41.912Z,71.40
2019-04-11T12:43:12.049Z,70.90
2019-04-11T12:46:12.850Z,70.90
2019-04-11T12:48:47.942Z,70.30
2019-04-11T12:51:35.629Z,71.10
2019-04-11T12:54:08.415Z,71.80
2019-04-11T12:57:13.333Z,70.90
2019-04-11T12:59:44.369Z,70.90
2019-04-11T13:02:48.550Z,71.20
2019-04-11T13:05:18.031Z,70.80
2019-04-11T13:08:23.157Z,71.50
2019-04-11T13:10:52.472Z,70.30
2019-04-11T13:13:39.290Z,70.80
2019-04-11T13:16:13.619Z,70.90
2019-04-11T13:18:59.929Z,70.80
2019-04-11T13:21:34.444Z,70.30
2019-04-11T13:24:26.185Z,71.20
2019-04-11T13:27:10.198Z,70.60
2019-04-11T13:30:04.713Z,71.20
2019-04-11T13:33:02.831Z,71.00
2019-04-11T13:35:51.264Z,71.40
2019-04-11T13:38:27.934Z,70.90
2019-04-11T13:41:14.613Z,70.30
2019-04-11T13:43:52.610Z,69.80
2019-04-11T13:46:47.303Z,69.40
2019-04-11T13:49:44.816Z,69.10
2019-04-11T13:52:25.557Z,69.40
2019-04-11T13:55:02.169Z,68.80
2019-04-11T13:57:50.625Z,69.20
2019-04-11T14:00:37.997Z,68.50
2019-04-11T14:03:25.130Z,68.30
2019-04-11T14:05:55.559Z,68.60
2019-04-11T14:08:29.254Z,68.60
2019-04-11T14:11:06.935Z,68.50
2019-04-11T14:13:39.754Z,68.40
2019-04-11T14:16:14.514Z,68.20
2019-04-11T14:19:15.554Z,68.20
2019-04-11T14:21:46.337Z,68.20
2019-04-11T14:24:41.851Z,68.00
2019-04-11T14:27:19.902Z,68.50
2019-04-11T14:30:11.077Z,68.40
2019-04-11T14:32:44.398Z,68.60
2019-04-11T14:35:33.429Z,68.20
2019-04-11T14:38:10.737Z,68.10
2019-04-11T14:41:01.963Z,68.30
2019-04-11T14:43:50.800Z,69.70
2019-04-11T14:46:37.959Z,69.10
2019-04-11T14:49:10.479Z,69.40
2019-04-11T14:51:59.571Z,69.60
2019-04-11T14:54:49.188Z,69.40
2019-04-11T14:57:46.747Z,69.20
2019-04-11T15:00:24.228Z,69.10
2019-04-11T15:03:14.089Z,68.70
2019-04-11T15:05:53.928Z,69.10
2019-04-11T15:08:51.638Z,69.70
2019-04-11T15:11:32.176Z,69.60
2019-04-11T15:14:12.059Z,69.10
2019-04-11T15:17:03.500Z,68.90
2019-04-11T15:19:32.825Z,69.20
2019-04-11T15:22:27.088Z,69.60
2019-04-11T15:25:01.867Z,69.50
2019-04-11T15:27:49.262Z,69.40
2019-04-11T15:30:18.608Z,69.30
2019-04-11T15:35:57.667Z,69.80
2019-04-11T15:38:51.022Z,70.00
2019-04-11T15:41:20.283Z,70.10
2019-04-11T15:44:08.747Z,70.00
2019-04-11T15:46:38.121Z,70.30
2019-04-11T15:49:46.560Z,70.30
2019-04-11T15:52:19.190Z,70.50
2019-04-11T15:55:07.768Z,70.50
2019-04-11T15:57:43.772Z,70.80
2019-04-11T16:00:35.565Z,70.30
2019-04-11T16:03:12.528Z,70.60
2019-04-11T16:06:13.342Z,71.10
2019-04-11T16:09:01.741Z,71.30
2019-04-11T16:11:51.868Z,72.00
2019-04-11T16:14:32.631Z,71.20
2019-04-11T16:17:36.585Z,71.20
2019-04-11T16:20:17.766Z,71.80
2019-04-11T16:23:10.571Z,71.80
2019-04-11T16:25:42.238Z,71.50
2019-04-11T16:28:45.971Z,72.10
2019-04-11T16:31:15.241Z,72.10
2019-04-11T16:34:02.280Z,72.70
2019-04-11T16:36:55.812Z,72.30
2019-04-11T16:39:54.656Z,72.80
2019-04-11T16:42:30.101Z,73.10
2019-04-11T16:45:24.711Z,73.10
2019-04-11T16:48:09.967Z,72.90
2019-04-11T16:50:39.394Z,73.50
2019-04-11T16:53:11.496Z,73.50
2019-04-11T16:55:43.164Z,72.70
2019-04-11T16:58:15.155Z,73.10
2019-04-11T17:00:42.658Z,73.20
2019-04-11T17:03:12.046Z,73.00
2019-04-11T17:05:45.019Z,73.20
2019-04-11T17:08:31.345Z,73.00
2019-04-11T17:11:06.576Z,73.60
2019-04-11T17:13:35.965Z,73.90
2019-04-11T17:16:11.038Z,74.10
2019-04-11T17:18:40.630Z,73.90
2019-04-11T17:21:09.912Z,73.80
2019-04-11T17:23:39.272Z,74.50
2019-04-11T17:26:08.672Z,74.60
2019-04-11T17:28:38.031Z,74.30
2019-04-11T17:31:07.395Z,74.50
2019-04-11T17:33:36.724Z,74.50
2019-04-11T17:36:06.081Z,74.20
2019-04-11T17:38:37.120Z,74.30
2019-04-11T17:41:06.320Z,74.40
2019-04-11T17:43:35.692Z,74.40
2019-04-11T17:46:05.031Z,74.10
2019-04-11T17:48:34.375Z,74.70
2019-04-11T17:51:09.578Z,74.50
2019-04-11T17:53:39.104Z,74.80
2019-04-11T17:56:08.560Z,75.40
2019-04-11T17:58:37.887Z,75.20
2019-04-11T18:01:08.189Z,75.20
2019-04-11T18:03:42.098Z,75.20
2019-04-11T18:06:17.144Z,75.20
2019-04-11T18:08:51.149Z,75.30
2019-04-11T18:11:18.648Z,75.20
2019-04-11T18:13:47.917Z,75.40
2019-04-11T18:16:17.517Z,75.40
2019-04-11T18:18:46.965Z,75.40
2019-04-11T18:21:16.356Z,75.50
2019-04-11T18:23:49.828Z,75.50
2019-04-11T18:26:19.042Z,75.40
2019-04-11T18:28:51.822Z,75.90
2019-04-11T18:31:20.509Z,75.90
2019-04-11T18:33:49.910Z,76.20
2019-04-11T18:36:19.310Z,76.50
2019-04-11T18:38:48.677Z,76.50
2019-04-11T18:41:18.081Z,76.80
2019-04-11T18:43:47.879Z,76.80
2019-04-11T18:46:17.341Z,76.70
2019-04-11T18:48:46.597Z,76.70
2019-04-11T18:51:16.344Z,76.40
2019-04-11T18:53:45.640Z,76.70
2019-04-11T18:56:15.038Z,76.50
2019-04-11T18:58:44.304Z,76.40
2019-04-11T19:01:14.472Z,76.70
2019-04-11T19:03:43.897Z,76.40
2019-04-11T19:06:13.827Z,76.30
2019-04-11T19:09:02.332Z,76.40
2019-04-11T19:11:33.405Z,76.40
2019-04-11T19:14:04.344Z,76.70
2019-04-11T19:16:33.705Z,77.10
2019-04-11T19:19:03.174Z,76.60
2019-04-11T19:21:32.600Z,76.50
2019-04-11T19:24:01.921Z,76.40
2019-04-11T19:26:31.353Z,76.50
2019-04-11T19:29:00.638Z,76.70
2019-04-11T19:31:30.000Z,76.60
2019-04-11T19:33:59.337Z,76.90
2019-04-11T19:36:28.755Z,76.30
2019-04-11T19:39:00.968Z,76.40
2019-04-11T19:41:29.389Z,76.60
2019-04-11T19:43:58.671Z,76.80
2019-04-11T19:46:28.044Z,77.10
2019-04-11T19:48:59.410Z,77.10
2019-04-11T19:51:28.948Z,76.90
2019-04-11T19:54:02.984Z,77.80
2019-04-11T19:56:48.997Z,77.30
2019-04-11T19:59:18.593Z,77.30
2019-04-11T20:01:48.349Z,77.60
2019-04-11T20:04:17.760Z,77.30
2019-04-11T20:06:47.006Z,77.70
2019-04-11T20:09:16.369Z,77.00
2019-04-11T20:11:45.612Z,78.00
2019-04-11T20:14:14.948Z,77.90
2019-04-11T20:16:48.348Z,77.70
2019-04-11T20:19:16.148Z,78.30
2019-04-11T20:21:45.836Z,77.70
2019-04-11T20:24:16.990Z,77.60
2019-04-11T20:26:49.791Z,77.70
2019-04-11T20:29:18.924Z,78.00
2019-04-11T20:31:49.057Z,77.90
2019-04-11T20:34:27.477Z,78.30
2019-04-11T20:36:50.141Z,78.00
2019-04-11T20:39:19.634Z,78.20
2019-04-11T20:41:53.225Z,78.20
2019-04-11T20:44:21.809Z,78.80
2019-04-11T20:46:51.221Z,78.70
2019-04-11T20:49:20.480Z,78.50
2019-04-11T20:51:49.953Z,78.60
2019-04-11T20:54:19.762Z,78.80
2019-04-11T20:56:49.159Z,78.90
2019-04-11T20:59:18.486Z,79.20
2019-04-11T21:01:47.857Z,79.10
2019-04-11T21:04:17.309Z,79.10
2019-04-11T21:06:46.673Z,79.30
2019-04-11T21:09:15.955Z,79.40
2019-04-11T21:11:45.295Z,79.70
2019-04-11T21:14:14.795Z,79.50
2019-04-11T21:16:44.197Z,79.70
2019-04-11T21:19:13.680Z,79.40
2019-04-11T21:21:43.349Z,79.80
2019-04-11T21:24:12.978Z,79.70
2019-04-11T21:26:42.540Z,79.70
2019-04-11T21:29:11.940Z,80.00
2019-04-11T21:31:41.445Z,80.20
2019-04-11T21:34:10.770Z,80.10
2019-04-11T21:36:40.100Z,80.10
2019-04-11T21:39:09.470Z,80.50
2019-04-11T21:41:39.023Z,80.40
2019-04-11T21:44:08.375Z,80.60
2019-04-11T21:46:39.507Z,80.60
2019-04-11T21:49:08.698Z,80.80
2019-04-11T21:51:41.375Z,81.00
2019-04-11T21:54:09.085Z,81.10
2019-04-11T21:56:38.705Z,81.00
2019-04-11T21:59:07.989Z,81.30
2019-04-11T22:01:41.252Z,81.30
2019-04-11T22:04:10.761Z,81.60
2019-04-11T22:06:40.158Z,81.60
2019-04-11T22:09:09.818Z,81.60
2019-04-11T22:11:39.258Z,82.00
2019-04-11T22:14:11.017Z,82.10
2019-04-11T22:16:44.044Z,82.30
2019-04-11T22:19:14.069Z,82.70
2019-04-11T22:21:44.999Z,82.80
2019-04-11T22:24:13.160Z,82.70
2019-04-11T22:26:43.129Z,83.30
2019-04-11T22:29:12.402Z,83.00
2019-04-11T22:31:41.767Z,83.30
2019-04-11T22:34:16.736Z,82.90
2019-04-11T22:36:46.334Z,82.90
2019-04-11T22:39:15.672Z,82.80
2019-04-11T22:42:04.094Z,82.70
2019-04-11T22:44:35.575Z,82.90
2019-04-11T22:47:07.597Z,82.90
2019-04-11T22:49:38.889Z,82.80
2019-04-11T22:52:06.779Z,82.70
2019-04-11T22:54:36.051Z,82.80
2019-04-11T22:57:05.707Z,82.50
2019-04-11T22:59:35.063Z,82.10
2019-04-11T23:02:12.428Z,82.30
2019-04-11T23:04:42.083Z,81.40
2019-04-11T23:07:11.451Z,81.50
2019-04-11T23:09:40.785Z,81.10
2019-04-11T23:12:10.118Z,81.20
2019-04-11T23:14:39.743Z,81.30
2019-04-11T23:17:09.321Z,81.20
2019-04-11T23:19:39.533Z,81.20
2019-04-11T23:22:09.811Z,81.00
2019-04-11T23:24:40.206Z,80.80
2019-04-11T23:27:10.384Z,80.60
2019-04-11T23:29:39.677Z,80.60
2019-04-11T23:32:09.025Z,80.30
2019-04-11T23:34:38.360Z,80.20
2019-04-11T23:37:07.900Z,80.80
2019-04-11T23:39:37.282Z,80.50
2019-04-11T23:42:06.561Z,80.30
2019-04-11T23:44:35.813Z,80.30
2019-04-11T23:47:05.062Z,80.00
2019-04-11T23:49:34.388Z,79.90
2019-04-11T23:52:03.647Z,80.30
2019-04-11T23:54:32.956Z,80.00
2019-04-11T23:57:02.201Z,80.00
2019-04-11T23:59:32.658Z,80.00
